createdAt,value
2022-11-09T00:01:29.356Z,10.69
2022-11-09T00:03:59.265Z,10.67
2022-11-09T00:06:30.205Z,10.64
2022-11-09T00:09:04.155Z,10.63
2022-11-09T00:11:35.594Z,10.64
2022-11-09T00:14:04.286Z,10.67
2022-11-09T00:16:32.744Z,10.61
2022-11-09T00:19:01.182Z,10.61
2022-11-09T00:21:31.021Z,10.57
2022-11-09T00:23:59.320Z,10.57
2022-11-09T00:26:27.832Z,10.58
2022-11-09T00:28:56.286Z,10.61
2022-11-09T00:31:25.719Z,10.62
2022-11-09T00:33:56.600Z,10.67
2022-11-09T00:36:27.785Z,10.62
2022-11-09T00:38:59.043Z,10.59
2022-11-09T00:41:28.111Z,10.61
2022-11-09T00:43:57.155Z,10.56
2022-11-09T00:46:25.956Z,10.55
2022-11-09T00:48:55.673Z,10.57
2022-11-09T00:51:24.534Z,10.59
2022-11-09T00:53:54.784Z,10.54
2022-11-09T00:56:25.523Z,10.56
2022-11-09T00:58:55.868Z,10.57
2022-11-09T01:01:24.645Z,10.51
2022-11-09T01:03:53.305Z,10.45
2022-11-09T01:06:23.378Z,10.40
2022-11-09T01:08:52.999Z,10.38
2022-11-09T01:11:23.270Z,10.35
2022-11-09T01:13:55.648Z,10.31
2022-11-09T01:16:25.184Z,10.26
2022-11-09T01:18:55.445Z,10.21
2022-11-09T01:21:26.909Z,10.19
2022-11-09T01:23:58.223Z,10.19
2022-11-09T01:26:29.702Z,10.16
2022-11-09T01:28:59.447Z,10.16
2022-11-09T01:31:27.789Z,10.17
2022-11-09T01:33:56.550Z,10.12
2022-11-09T01:36:26.319Z,10.09
2022-11-09T01:38:54.865Z,10.02
2022-11-09T01:41:25.487Z,9.94
2022-11-09T01:44:06.735Z,9.92
2022-11-09T01:46:39.851Z,9.94
2022-11-09T01:49:15.509Z,9.95
2022-11-09T01:51:48.596Z,9.96
2022-11-09T01:54:20.665Z,9.98
2022-11-09T01:56:54.806Z,9.97
2022-11-09T01:59:28.441Z,9.88
2022-11-09T02:01:57.673Z,9.90
2022-11-09T02:04:32.249Z,9.90
2022-11-09T02:07:01.204Z,9.87
2022-11-09T02:09:34.637Z,9.88
2022-11-09T02:12:03.096Z,9.92
2022-11-09T02:14:34.095Z,9.92
2022-11-09T02:17:02.725Z,9.95
2022-11-09T02:19:31.855Z,9.94
2022-11-09T02:22:02.246Z,9.90
2022-11-09T02:24:34.108Z,9.93
2022-11-09T02:27:02.710Z,9.96
2022-11-09T02:29:36.117Z,10.00
2022-11-09T02:32:09.540Z,10.01
2022-11-09T02:34:38.295Z,10.04
2022-11-09T02:37:08.363Z,10.10
2022-11-09T02:39:37.023Z,10.11
2022-11-09T02:42:10.452Z,10.09
2022-11-09T02:44:44.645Z,10.05
2022-11-09T02:47:13.191Z,10.02
2022-11-09T02:49:42.400Z,10.04
2022-11-09T02:52:12.252Z,10.00
2022-11-09T02:54:40.915Z,9.98
2022-11-09T02:57:09.992Z,9.90
2022-11-09T02:59:39.523Z,9.89
2022-11-09T03:02:08.595Z,9.88
2022-11-09T03:04:37.240Z,9.85
2022-11-09T03:07:06.401Z,9.79
2022-11-09T03:09:36.408Z,9.63
2022-11-09T03:12:25.437Z,9.63
2022-11-09T03:14:54.016Z,9.56
2022-11-09T03:17:22.977Z,9.49
2022-11-09T03:19:51.482Z,9.50
2022-11-09T03:22:19.972Z,9.57
2022-11-09T03:24:51.084Z,9.50
2022-11-09T03:27:20.074Z,9.55
2022-11-09T03:29:50.564Z,9.43
2022-11-09T03:32:19.211Z,9.51
2022-11-09T03:34:49.093Z,9.48
2022-11-09T03:37:17.620Z,9.44
2022-11-09T03:39:46.200Z,9.51
2022-11-09T03:42:15.994Z,9.50
2022-11-09T03:44:44.610Z,9.51
2022-11-09T03:47:13.135Z,9.55
2022-11-09T03:49:41.572Z,9.51
2022-11-09T03:52:10.079Z,9.57
2022-11-09T03:54:38.724Z,9.56
2022-11-09T03:57:07.156Z,9.59
2022-11-09T03:59:37.123Z,9.56
2022-11-09T04:02:05.446Z,9.51
2022-11-09T04:04:34.036Z,9.58
2022-11-09T04:07:02.566Z,9.55
2022-11-09T04:09:31.124Z,9.43
2022-11-09T04:11:59.550Z,9.38
2022-11-09T04:14:27.957Z,9.37
2022-11-09T04:16:57.983Z,9.38
2022-11-09T04:19:26.430Z,9.39
2022-11-09T04:21:54.880Z,9.33
2022-11-09T04:24:23.364Z,9.39
2022-11-09T04:26:51.814Z,9.34
2022-11-09T04:29:20.272Z,9.32
2022-11-09T04:31:49.364Z,9.28
2022-11-09T04:34:19.899Z,9.27
2022-11-09T04:36:48.405Z,9.30
2022-11-09T04:39:17.305Z,9.27
2022-11-09T04:41:46.131Z,9.34
2022-11-09T04:44:14.646Z,9.32
2022-11-09T04:46:43.638Z,9.34
2022-11-09T04:49:12.125Z,9.34
2022-11-09T04:51:41.940Z,9.39
2022-11-09T04:54:10.424Z,9.37
2022-11-09T04:56:38.858Z,9.38
2022-11-09T04:59:07.397Z,9.35
2022-11-09T05:01:36.154Z,9.37
2022-11-09T05:04:04.924Z,9.40
2022-11-09T05:06:33.453Z,9.38
2022-11-09T05:09:05.399Z,9.37
2022-11-09T05:11:35.074Z,9.36
2022-11-09T05:14:04.676Z,9.32
2022-11-09T05:16:33.384Z,9.27
2022-11-09T05:19:01.867Z,9.27
2022-11-09T05:21:33.823Z,9.31
2022-11-09T05:24:03.074Z,9.26
2022-11-09T05:26:33.250Z,9.24
2022-11-09T05:29:03.569Z,9.27
2022-11-09T05:31:32.500Z,9.27
2022-11-09T05:34:01.788Z,9.29
2022-11-09T05:36:31.594Z,9.24
2022-11-09T05:39:00.148Z,9.31
2022-11-09T05:41:29.799Z,9.30
2022-11-09T05:43:58.190Z,9.28
2022-11-09T05:46:26.985Z,9.29
2022-11-09T05:48:55.485Z,9.31
2022-11-09T05:51:24.023Z,9.25
2022-11-09T05:53:52.490Z,9.28
2022-11-09T05:56:20.968Z,9.24
2022-11-09T05:58:50.789Z,9.27
2022-11-09T06:01:19.699Z,9.30
2022-11-09T06:03:48.350Z,9.31
2022-11-09T06:06:17.688Z,9.27
2022-11-09T06:08:46.280Z,9.33
2022-11-09T06:11:21.915Z,9.34
2022-11-09T06:13:54.086Z,9.44
2022-11-09T06:16:22.792Z,9.45
2022-11-09T06:18:51.204Z,9.45
2022-11-09T06:21:23.444Z,9.47
2022-11-09T06:23:51.857Z,9.45
2022-11-09T06:26:20.277Z,9.39
2022-11-09T06:28:48.672Z,9.40
2022-11-09T06:31:20.501Z,9.43
2022-11-09T06:33:48.971Z,9.46
2022-11-09T06:36:17.396Z,9.49
2022-11-09T06:38:45.814Z,9.56
2022-11-09T06:41:14.254Z,9.56
2022-11-09T06:43:43.228Z,9.61
2022-11-09T06:46:12.602Z,9.63
2022-11-09T06:48:42.484Z,9.68
2022-11-09T06:51:10.964Z,9.73
2022-11-09T06:53:41.322Z,9.76
2022-11-09T06:56:10.092Z,9.81
2022-11-09T06:58:38.584Z,9.84
2022-11-09T07:01:11.415Z,9.91
2022-11-09T07:03:41.924Z,9.96
2022-11-09T07:06:12.344Z,9.99
2022-11-09T07:08:41.525Z,10.10
2022-11-09T07:11:11.780Z,10.18
2022-11-09T07:13:40.779Z,10.22
2022-11-09T07:16:11.927Z,10.23
2022-11-09T07:18:41.810Z,10.24
2022-11-09T07:21:13.966Z,10.22
2022-11-09T07:23:43.647Z,10.20
2022-11-09T07:26:12.231Z,10.21
2022-11-09T07:28:41.425Z,10.20
2022-11-09T07:31:10.825Z,10.24
2022-11-09T07:33:39.240Z,10.25
2022-11-09T07:36:10.399Z,10.35
2022-11-09T07:38:38.840Z,10.38
2022-11-09T07:41:07.364Z,10.36
2022-11-09T07:43:35.790Z,10.34
2022-11-09T07:46:06.232Z,10.33
2022-11-09T07:48:34.644Z,10.32
2022-11-09T07:51:03.179Z,10.33
2022-11-09T07:53:33.307Z,10.34
2022-11-09T07:56:03.336Z,10.35
2022-11-09T07:58:32.325Z,10.37
2022-11-09T08:01:01.364Z,10.41
2022-11-09T08:03:29.801Z,10.44
2022-11-09T08:05:58.876Z,10.46
2022-11-09T08:08:27.367Z,10.50
2022-11-09T08:10:59.452Z,10.53
2022-11-09T08:13:27.941Z,10.56
2022-11-09T08:15:56.430Z,10.61
2022-11-09T08:18:24.924Z,10.63
2022-11-09T08:20:53.479Z,10.66
2022-11-09T08:23:22.230Z,10.68
2022-11-09T08:25:51.146Z,10.73
2022-11-09T08:28:21.213Z,10.69
2022-11-09T08:30:57.567Z,10.65
2022-11-09T08:33:27.392Z,10.63
2022-11-09T08:35:56.137Z,10.65
2022-11-09T08:38:24.839Z,10.65
2022-11-09T08:40:58.556Z,10.60
2022-11-09T08:43:28.466Z,10.63
2022-11-09T08:45:56.717Z,10.63
2022-11-09T08:48:25.225Z,10.65
2022-11-09T08:50:54.655Z,10.72
2022-11-09T08:53:23.936Z,10.72
2022-11-09T08:55:52.836Z,10.71
2022-11-09T08:58:22.461Z,10.73
2022-11-09T09:00:52.456Z,10.72
2022-11-09T09:03:20.924Z,10.72
2022-11-09T09:05:49.405Z,10.73
2022-11-09T09:08:21.967Z,10.77
2022-11-09T09:10:50.744Z,10.77
2022-11-09T09:13:22.508Z,10.79
2022-11-09T09:15:54.707Z,10.81
2022-11-09T09:18:24.534Z,10.84
2022-11-09T09:20:52.995Z,10.88
2022-11-09T09:23:21.980Z,10.88
2022-11-09T09:25:50.369Z,10.92
2022-11-09T09:28:19.116Z,10.94
2022-11-09T09:30:47.775Z,10.95
2022-11-09T09:33:17.569Z,11.01
2022-11-09T09:35:45.839Z,11.03
2022-11-09T09:38:14.347Z,11.05
2022-11-09T09:40:55.746Z,11.08
2022-11-09T09:43:29.628Z,11.17
2022-11-09T09:46:01.745Z,11.31
2022-11-09T09:48:39.206Z,11.45
2022-11-09T09:51:14.573Z,11.48
2022-11-09T09:53:47.736Z,11.46
2022-11-09T09:56:21.780Z,11.48
2022-11-09T09:58:56.831Z,11.51
2022-11-09T10:01:35.601Z,11.61
2022-11-09T10:04:18.009Z,11.74
2022-11-09T10:06:59.016Z,11.87
2022-11-09T10:09:42.894Z,11.96
2022-11-09T10:12:22.455Z,12.07
2022-11-09T10:15:15.495Z,12.32
2022-11-09T10:17:57.087Z,12.50
2022-11-09T10:20:40.914Z,12.62
2022-11-09T10:23:26.233Z,12.72
2022-11-09T10:26:05.262Z,12.90
2022-11-09T10:29:13.902Z,13.11
2022-11-09T10:31:33.548Z,13.32
2022-11-09T10:34:13.636Z,13.52
2022-11-09T10:36:48.909Z,13.63
2022-11-09T10:39:18.292Z,13.78
2022-11-09T10:42:05.825Z,13.84
2022-11-09T10:44:53.081Z,13.98
2022-11-09T10:47:48.932Z,14.09
2022-11-09T10:50:39.234Z,14.19
2022-11-09T10:53:29.321Z,14.35
2022-11-09T10:56:21.259Z,14.56
2022-11-09T10:59:41.600Z,15.02
2022-11-09T11:02:47.482Z,15.36
2022-11-09T11:05:34.939Z,15.69
2022-11-09T11:08:25.494Z,15.98
2022-11-09T11:11:39.105Z,16.24
2022-11-09T11:14:31.503Z,16.54
2022-11-09T11:17:23.655Z,16.99
2022-11-09T11:20:32.083Z,17.50
2022-11-09T11:23:21.580Z,17.61
2022-11-09T11:26:38.873Z,17.16
2022-11-09T11:29:35.105Z,17.12
2022-11-09T11:32:24.657Z,16.83
2022-11-09T11:35:17.363Z,16.70
2022-11-09T11:38:19.333Z,16.49
2022-11-09T11:41:29.017Z,16.49
2022-11-09T11:44:28.271Z,16.78
2022-11-09T11:47:22.459Z,17.58
2022-11-09T11:50:29.997Z,17.90
2022-11-09T11:53:33.032Z,17.43
2022-11-09T11:56:25.570Z,17.04
2022-11-09T11:59:39.922Z,16.83
2022-11-09T12:02:58.518Z,16.63
2022-11-09T12:06:08.479Z,16.67
2022-11-09T12:09:07.438Z,16.20
2022-11-09T12:12:08.509Z,16.15
2022-11-09T12:15:07.952Z,16.15
2022-11-09T12:18:05.850Z,16.13
2022-11-09T12:21:01.616Z,16.22
2022-11-09T12:24:15.761Z,16.25
2022-11-09T12:27:31.976Z,16.20
2022-11-09T12:30:24.113Z,16.12
2022-11-09T12:33:17.190Z,16.18
2022-11-09T12:36:10.069Z,16.23
2022-11-09T12:39:02.995Z,16.12
2022-11-09T12:41:52.081Z,16.14
2022-11-09T12:44:44.702Z,16.10
2022-11-09T12:47:45.476Z,16.03
2022-11-09T12:50:33.245Z,15.91
2022-11-09T12:53:22.855Z,15.86
2022-11-09T12:56:18.064Z,15.86
2022-11-09T12:59:35.864Z,15.86
2022-11-09T13:02:28.717Z,15.81
2022-11-09T13:05:32.431Z,15.88
2022-11-09T13:08:26.089Z,15.95
2022-11-09T13:11:22.306Z,15.93
2022-11-09T13:14:35.502Z,15.99
2022-11-09T13:18:02.333Z,16.02
2022-11-09T13:20:56.945Z,15.96
2022-11-09T13:24:03.726Z,15.84
2022-11-09T13:26:59.781Z,15.76
2022-11-09T13:29:56.451Z,15.77
2022-11-09T13:33:23.731Z,15.71
2022-11-09T13:36:22.102Z,15.63
2022-11-09T13:39:32.514Z,15.57
2022-11-09T13:42:27.740Z,15.55
2022-11-09T13:45:27.885Z,15.46
2022-11-09T13:48:42.554Z,15.46
2022-11-09T13:51:46.347Z,15.43
2022-11-09T13:54:34.839Z,15.45
2022-11-09T13:57:24.315Z,15.43
2022-11-09T14:00:23.135Z,15.30
2022-11-09T14:03:20.451Z,15.34
2022-11-09T14:06:07.870Z,15.31
2022-11-09T14:08:57.101Z,15.30
2022-11-09T14:12:05.612Z,15.13
2022-11-09T14:15:07.153Z,15.05
2022-11-09T14:18:07.139Z,14.95
2022-11-09T14:21:01.001Z,14.99
2022-11-09T14:23:49.367Z,14.94
2022-11-09T14:26:37.925Z,14.91
2022-11-09T14:29:25.177Z,14.77
2022-11-09T14:32:35.614Z,14.70
2022-11-09T14:35:26.109Z,14.63
2022-11-09T14:38:20.244Z,14.63
2022-11-09T14:41:20.230Z,14.56
2022-11-09T14:44:17.061Z,14.48
2022-11-09T14:47:06.183Z,14.46
2022-11-09T14:49:54.088Z,14.35
2022-11-09T14:52:41.644Z,14.27
2022-11-09T14:55:29.668Z,14.23
2022-11-09T14:58:18.080Z,14.21
2022-11-09T15:01:23.864Z,14.15
2022-11-09T15:04:14.459Z,14.09
2022-11-09T15:07:04.648Z,14.04
2022-11-09T15:09:55.975Z,14.01
2022-11-09T15:12:49.168Z,13.97
2022-11-09T15:15:38.355Z,13.91
2022-11-09T15:18:33.875Z,13.81
2022-11-09T15:21:35.439Z,13.74
2022-11-09T15:24:25.060Z,13.72
2022-11-09T15:27:32.534Z,13.71
2022-11-09T15:30:30.467Z,13.66
2022-11-09T15:33:26.747Z,13.64
2022-11-09T15:36:26.343Z,13.55
2022-11-09T15:39:16.725Z,13.51
2022-11-09T15:42:03.835Z,13.45
2022-11-09T15:44:55.248Z,13.41
2022-11-09T15:47:42.215Z,13.34
2022-11-09T15:50:30.542Z,13.30
2022-11-09T15:53:17.700Z,13.16
2022-11-09T15:56:05.021Z,13.15
2022-11-09T15:58:53.420Z,13.10
2022-11-09T16:01:40.976Z,13.07
2022-11-09T16:04:27.904Z,13.04
2022-11-09T16:07:17.460Z,13.03
2022-11-09T16:10:05.581Z,12.99
2022-11-09T16:12:52.984Z,12.97
2022-11-09T16:15:40.599Z,12.95
2022-11-09T16:18:27.863Z,12.92
2022-11-09T16:21:17.390Z,12.79
2022-11-09T16:24:05.942Z,12.81
2022-11-09T16:26:54.931Z,12.76
2022-11-09T16:29:42.163Z,12.71
2022-11-09T16:32:29.083Z,12.68
2022-11-09T16:35:26.559Z,12.63
2022-11-09T16:38:15.563Z,12.62
2022-11-09T16:41:05.322Z,12.59
2022-11-09T16:43:54.168Z,12.60
2022-11-09T16:46:43.738Z,12.55
2022-11-09T16:49:31.838Z,12.54
2022-11-09T16:52:18.901Z,12.50
2022-11-09T16:55:07.721Z,12.48
2022-11-09T16:57:56.369Z,12.45
2022-11-09T17:01:09.562Z,12.44
2022-11-09T17:03:53.355Z,12.38
2022-11-09T17:06:40.231Z,12.38
2022-11-09T17:09:27.748Z,12.34
2022-11-09T17:12:15.191Z,12.38
2022-11-09T17:15:03.762Z,12.36
2022-11-09T17:17:50.844Z,12.37
2022-11-09T17:20:43.418Z,12.38
2022-11-09T17:23:31.431Z,12.32
2022-11-09T17:26:19.664Z,12.27
2022-11-09T17:29:06.809Z,12.27
2022-11-09T17:31:55.157Z,12.28
2022-11-09T17:34:42.172Z,12.24
2022-11-09T17:37:29.341Z,12.22
2022-11-09T17:40:19.739Z,12.19
2022-11-09T17:43:06.827Z,12.21
2022-11-09T17:45:54.057Z,12.18
2022-11-09T17:48:43.949Z,12.16
2022-11-09T17:51:31.252Z,12.11
2022-11-09T17:54:18.530Z,12.08
2022-11-09T17:57:05.584Z,12.05
2022-11-09T17:59:52.373Z,12.03
2022-11-09T18:02:39.344Z,12.06
2022-11-09T18:05:27.890Z,12.06
2022-11-09T18:08:16.147Z,12.08
2022-11-09T18:11:03.270Z,12.03
2022-11-09T18:13:50.366Z,12.06
2022-11-09T18:16:37.908Z,12.06
2022-11-09T18:19:24.867Z,12.04
2022-11-09T18:22:13.328Z,12.02
2022-11-09T18:25:00.508Z,11.98
2022-11-09T18:27:48.389Z,11.95
2022-11-09T18:30:41.448Z,11.90
2022-11-09T18:33:29.211Z,11.94
2022-11-09T18:36:18.463Z,11.94
2022-11-09T18:39:07.013Z,11.89
2022-11-09T18:41:54.519Z,11.87
2022-11-09T18:44:41.637Z,11.80
2022-11-09T18:47:28.741Z,11.81
2022-11-09T18:50:15.778Z,11.81
2022-11-09T18:53:02.776Z,11.76
2022-11-09T18:55:51.326Z,11.76
2022-11-09T18:58:40.420Z,11.70
2022-11-09T19:01:28.500Z,11.63
2022-11-09T19:04:16.687Z,11.62
2022-11-09T19:07:03.678Z,11.57
2022-11-09T19:09:55.479Z,11.54
2022-11-09T19:12:44.997Z,11.51
2022-11-09T19:15:34.953Z,11.51
2022-11-09T19:18:22.333Z,11.49
2022-11-09T19:21:25.840Z,11.41
2022-11-09T19:24:14.791Z,11.36
2022-11-09T19:27:01.733Z,11.30
2022-11-09T19:29:49.978Z,11.28
2022-11-09T19:32:36.859Z,11.28
2022-11-09T19:35:27.323Z,11.19
2022-11-09T19:38:16.737Z,11.21
2022-11-09T19:41:04.761Z,11.15
2022-11-09T19:43:54.304Z,11.16
2022-11-09T19:46:42.623Z,11.13
2022-11-09T19:49:29.853Z,11.14
2022-11-09T19:52:16.858Z,11.05
2022-11-09T19:55:04.323Z,11.03
2022-11-09T19:57:51.525Z,11.03
2022-11-09T20:00:38.560Z,11.00
2022-11-09T20:03:27.043Z,10.96
2022-11-09T20:06:13.942Z,11.00
2022-11-09T20:09:01.332Z,10.97
2022-11-09T20:12:06.444Z,10.96
2022-11-09T20:14:53.646Z,10.92
2022-11-09T20:17:41.078Z,10.90
2022-11-09T20:20:29.338Z,10.86
2022-11-09T20:23:21.419Z,10.83
2022-11-09T20:26:12.277Z,10.84
2022-11-09T20:28:59.299Z,10.87
2022-11-09T20:31:46.526Z,10.80
2022-11-09T20:34:35.417Z,10.79
2022-11-09T20:37:23.638Z,10.82
2022-11-09T20:40:11.853Z,10.86
2022-11-09T20:42:58.976Z,10.90
2022-11-09T20:45:49.059Z,10.95
2022-11-09T20:48:53.622Z,11.00
2022-11-09T20:51:41.787Z,11.04
2022-11-09T20:54:30.101Z,11.02
2022-11-09T20:57:17.207Z,11.04
2022-11-09T21:00:05.094Z,11.03
2022-11-09T21:02:52.218Z,10.99
2022-11-09T21:05:39.327Z,10.96
2022-11-09T21:08:26.841Z,10.96
2022-11-09T21:11:15.065Z,10.94
2022-11-09T21:14:03.123Z,10.95
2022-11-09T21:16:50.311Z,10.93
2022-11-09T21:19:37.528Z,10.91
2022-11-09T21:22:45.044Z,10.87
2022-11-09T21:25:50.889Z,10.92
2022-11-09T21:28:57.484Z,10.88
2022-11-09T21:31:44.894Z,10.90
2022-11-09T21:34:36.466Z,10.91
2022-11-09T21:37:24.381Z,10.93
2022-11-09T21:40:11.872Z,10.92
2022-11-09T21:42:59.169Z,10.92
2022-11-09T21:45:53.841Z,10.92
2022-11-09T21:48:40.897Z,10.91
2022-11-09T21:51:28.099Z,10.90
2022-11-09T21:54:15.212Z,10.90
2022-11-09T21:57:02.456Z,10.87
2022-11-09T21:59:49.370Z,10.89
2022-11-09T22:02:38.808Z,10.90
2022-11-09T22:05:25.702Z,10.87
2022-11-09T22:08:12.696Z,10.89
2022-11-09T22:11:06.961Z,10.85
2022-11-09T22:14:11.387Z,10.85
2022-11-09T22:16:58.672Z,10.86
2022-11-09T22:20:04.486Z,10.85
2022-11-09T22:22:51.708Z,10.84
2022-11-09T22:25:39.917Z,10.83
2022-11-09T22:28:28.416Z,10.81
2022-11-09T22:31:15.348Z,10.83
2022-11-09T22:34:02.298Z,10.85
2022-11-09T22:36:51.727Z,10.86
2022-11-09T22:39:41.787Z,10.85
2022-11-09T22:42:33.150Z,10.91
2022-11-09T22:45:20.105Z,10.86
2022-11-09T22:48:07.385Z,10.88
2022-11-09T22:50:54.365Z,10.89
2022-11-09T22:53:42.992Z,10.89
2022-11-09T22:56:30.069Z,10.92
2022-11-09T22:59:16.968Z,10.90
2022-11-09T23:02:04.119Z,10.91
2022-11-09T23:04:50.995Z,10.90
2022-11-09T23:07:37.867Z,10.89
2022-11-09T23:10:26.089Z,10.89
2022-11-09T23:13:13.044Z,10.88
2022-11-09T23:16:01.838Z,10.86
2022-11-09T23:18:53.872Z,10.86
2022-11-09T23:21:40.704Z,10.80
2022-11-09T23:24:44.859Z,10.80
2022-11-09T23:27:33.628Z,10.74
2022-11-09T23:30:21.425Z,10.70
2022-11-09T23:33:08.879Z,10.70
2022-11-09T23:35:56.530Z,10.67
2022-11-09T23:38:43.817Z,10.62
2022-11-09T23:41:30.746Z,10.66
2022-11-09T23:44:18.977Z,10.61
2022-11-09T23:47:06.041Z,10.54
2022-11-09T23:49:52.945Z,10.52
2022-11-09T23:52:39.903Z,10.53
2022-11-09T23:55:27.739Z,10.54
2022-11-09T23:58:15.004Z,10.56
